sensor_id;sensor_type;location;lat;lon;timestamp;pressure;altitude;pressure_sealevel;temperature;humidity
51928;BME280;37953;52.806;18.270;2023-04-28T00:01:51;101063.25;;;6.48;100.00
51928;BME280;37953;52.806;18.270;2023-04-28T00:04:16;101071.00;;;6.48;100.00
51928;BME280;37953;52.806;18.270;2023-04-28T00:06:42;101060.63;;;6.47;100.00
51928;BME280;37953;52.806;18.270;2023-04-28T00:09:08;101074.31;;;6.44;100.00
51928;BME280;37953;52.806;18.270;2023-04-28T00:11:38;101074.22;;;6.41;100.00
51928;BME280;37953;52.806;18.270;2023-04-28T00:14:04;101073.38;;;6.42;100.00
51928;BME280;37953;52.806;18.270;2023-04-28T00:16:37;101077.88;;;6.48;100.00
51928;BME280;37953;52.806;18.270;2023-04-28T00:19:02;101066.81;;;6.53;100.00
51928;BME280;37953;52.806;18.270;2023-04-28T00:21:28;101074.81;;;6.61;100.00
51928;BME280;37953;52.806;18.270;2023-04-28T00:23:54;101074.94;;;6.66;99.66
51928;BME280;37953;52.806;18.270;2023-04-28T00:26:20;101079.28;;;6.68;99.47
51928;BME280;37953;52.806;18.270;2023-04-28T00:28:46;101073.31;;;6.69;99.14
51928;BME280;37953;52.806;18.270;2023-04-28T00:45:10;101077.75;;;6.75;96.56
51928;BME280;37953;52.806;18.270;2023-04-28T00:47:37;101075.06;;;6.70;96.50
51928;BME280;37953;52.806;18.270;2023-04-28T00:50:03;101081.88;;;6.68;95.57
51928;BME280;37953;52.806;18.270;2023-04-28T00:52:32;101082.66;;;6.66;96.39
51928;BME280;37953;52.806;18.270;2023-04-28T00:54:58;101086.84;;;6.62;96.11
51928;BME280;37953;52.806;18.270;2023-04-28T00:57:24;101073.88;;;6.59;96.77
51928;BME280;37953;52.806;18.270;2023-04-28T00:59:50;101080.75;;;6.59;97.49
51928;BME280;37953;52.806;18.270;2023-04-28T01:02:17;101072.09;;;6.57;97.20
51928;BME280;37953;52.806;18.270;2023-04-28T01:04:44;101074.63;;;6.55;96.77
51928;BME280;37953;52.806;18.270;2023-04-28T01:07:11;101070.25;;;6.52;96.73
51928;BME280;37953;52.806;18.270;2023-04-28T01:09:37;101072.91;;;6.56;97.28
51928;BME280;37953;52.806;18.270;2023-04-28T01:12:03;101077.25;;;6.57;97.71
51928;BME280;37953;52.806;18.270;2023-04-28T01:14:29;101079.03;;;6.59;96.78
51928;BME280;37953;52.806;18.270;2023-04-28T01:16:55;101078.25;;;6.62;96.12
51928;BME280;37953;52.806;18.270;2023-04-28T01:19:22;101080.03;;;6.64;96.02
51928;BME280;37953;52.806;18.270;2023-04-28T01:21:49;101080.16;;;6.67;96.42
51928;BME280;37953;52.806;18.270;2023-04-28T01:24:20;101081.97;;;6.71;96.10
51928;BME280;37953;52.806;18.270;2023-04-28T01:26:47;101074.25;;;6.73;96.62
51928;BME280;37953;52.806;18.270;2023-04-28T01:29:14;101076.88;;;6.75;97.25
51928;BME280;37953;52.806;18.270;2023-04-28T01:31:40;101084.63;;;6.75;97.01
51928;BME280;37953;52.806;18.270;2023-04-28T01:34:06;101081.25;;;6.76;98.18
51928;BME280;37953;52.806;18.270;2023-04-28T01:36:32;101077.75;;;6.75;98.72
51928;BME280;37953;52.806;18.270;2023-04-28T01:38:58;101080.34;;;6.75;98.23
51928;BME280;37953;52.806;18.270;2023-04-28T01:41:24;101069.19;;;6.76;98.35
51928;BME280;37953;52.806;18.270;2023-04-28T01:43:50;101067.47;;;6.77;98.38
51928;BME280;37953;52.806;18.270;2023-04-28T01:46:17;101068.34;;;6.77;97.60
51928;BME280;37953;52.806;18.270;2023-04-28T01:48:42;101073.50;;;6.77;97.96
51928;BME280;37953;52.806;18.270;2023-04-28T01:51:09;101069.25;;;6.78;97.61
51928;BME280;37953;52.806;18.270;2023-04-28T01:53:34;101067.47;;;6.77;96.35
51928;BME280;37953;52.806;18.270;2023-04-28T01:56:01;101070.13;;;6.78;96.26
51928;BME280;37953;52.806;18.270;2023-04-28T01:58:28;101068.41;;;6.79;97.10
51928;BME280;37953;52.806;18.270;2023-04-28T02:00:54;101071.81;;;6.78;96.39
51928;BME280;37953;52.806;18.270;2023-04-28T02:03:19;101067.53;;;6.78;96.37
51928;BME280;37953;52.806;18.270;2023-04-28T02:05:46;101072.69;;;6.78;96.56
51928;BME280;37953;52.806;18.270;2023-04-28T02:08:12;101065.75;;;6.77;96.10
51928;BME280;37953;52.806;18.270;2023-04-28T02:10:38;101065.75;;;6.77;95.76
51928;BME280;37953;52.806;18.270;2023-04-28T02:13:04;101066.59;;;6.76;95.29
51928;BME280;37953;52.806;18.270;2023-04-28T02:15:29;101064.03;;;6.76;94.97
51928;BME280;37953;52.806;18.270;2023-04-28T02:17:55;101069.16;;;6.75;95.06
51928;BME280;37953;52.806;18.270;2023-04-28T02:20:22;101062.19;;;6.72;94.81
51928;BME280;37953;52.806;18.270;2023-04-28T02:22:47;101070.78;;;6.71;94.86
51928;BME280;37953;52.806;18.270;2023-04-28T02:25:14;101070.69;;;6.68;95.15
51928;BME280;37953;52.806;18.270;2023-04-28T02:27:40;101077.50;;;6.66;95.08
51928;BME280;37953;52.806;18.270;2023-04-28T02:30:06;101075.66;;;6.62;95.52
51928;BME280;37953;52.806;18.270;2023-04-28T02:32:32;101071.13;;;6.53;96.26
51928;BME280;37953;52.806;18.270;2023-04-28T02:34:58;101068.31;;;6.45;98.61
51928;BME280;37953;52.806;18.270;2023-04-28T02:37:24;101071.50;;;6.37;99.68
51928;BME280;37953;52.806;18.270;2023-04-28T02:39:51;101067.78;;;6.27;100.00
51928;BME280;37953;52.806;18.270;2023-04-28T02:42:23;101068.41;;;6.20;100.00
51928;BME280;37953;52.806;18.270;2023-04-28T02:44:49;101068.97;;;6.09;100.00
51928;BME280;37953;52.806;18.270;2023-04-28T02:47:15;101074.78;;;6.02;100.00
51928;BME280;37953;52.806;18.270;2023-04-28T02:49:41;101076.13;;;5.92;100.00
51928;BME280;37953;52.806;18.270;2023-04-28T02:52:07;101072.41;;;5.83;100.00
51928;BME280;37953;52.806;18.270;2023-04-28T02:54:33;101069.50;;;5.72;100.00
51928;BME280;37953;52.806;18.270;2023-04-28T02:57:01;101072.66;;;5.63;100.00
51928;BME280;37953;52.806;18.270;2023-04-28T02:59:49;101071.66;;;5.60;100.00
51928;BME280;37953;52.806;18.270;2023-04-28T03:02:15;101069.63;;;5.49;100.00
51928;BME280;37953;52.806;18.270;2023-04-28T03:04:47;101072.84;;;5.44;100.00
51928;BME280;37953;52.806;18.270;2023-04-28T03:07:13;101075.28;;;5.39;100.00
51928;BME280;37953;52.806;18.270;2023-04-28T03:09:40;101070.75;;;5.32;100.00
51928;BME280;37953;52.806;18.270;2023-04-28T03:12:06;101067.09;;;5.25;100.00
51928;BME280;37953;52.806;18.270;2023-04-28T03:14:32;101069.47;;;5.19;100.00
51928;BME280;37953;52.806;18.270;2023-04-28T03:16:58;101068.31;;;5.11;100.00
51928;BME280;37953;52.806;18.270;2023-04-28T03:19:24;101065.53;;;5.05;100.00
51928;BME280;37953;52.806;18.270;2023-04-28T03:21:51;101064.44;;;4.98;100.00
51928;BME280;37953;52.806;18.270;2023-04-28T03:24:17;101071.13;;;4.93;100.00
51928;BME280;37953;52.806;18.270;2023-04-28T03:26:42;101071.81;;;4.87;100.00
51928;BME280;37953;52.806;18.270;2023-04-28T03:29:08;101070.81;;;4.84;100.00
51928;BME280;37953;52.806;18.270;2023-04-28T03:31:34;101070.66;;;4.79;100.00
51928;BME280;37953;52.806;18.270;2023-04-28T03:34:00;101080.81;;;4.76;100.00
51928;BME280;37953;52.806;18.270;2023-04-28T03:36:27;101079.91;;;4.74;100.00
51928;BME280;37953;52.806;18.270;2023-04-28T03:38:53;101078.03;;;4.70;100.00
51928;BME280;37953;52.806;18.270;2023-04-28T03:41:19;101076.19;;;4.66;100.00
51928;BME280;37953;52.806;18.270;2023-04-28T03:43:45;101086.47;;;4.66;100.00
51928;BME280;37953;52.806;18.270;2023-04-28T03:46:11;101083.84;;;4.64;100.00
51928;BME280;37953;52.806;18.270;2023-04-28T03:48:37;101082.03;;;4.62;100.00
51928;BME280;37953;52.806;18.270;2023-04-28T03:51:03;101086.25;;;4.60;100.00
51928;BME280;37953;52.806;18.270;2023-04-28T03:53:30;101097.34;;;4.59;100.00
51928;BME280;37953;52.806;18.270;2023-04-28T03:55:56;101091.16;;;4.54;100.00
51928;BME280;37953;52.806;18.270;2023-04-28T03:58:22;101091.09;;;4.52;100.00
51928;BME280;37953;52.806;18.270;2023-04-28T04:00:48;101098.94;;;4.55;100.00
51928;BME280;37953;52.806;18.270;2023-04-28T04:03:14;101100.63;;;4.55;100.00
51928;BME280;37953;52.806;18.270;2023-04-28T04:05:40;101106.69;;;4.57;100.00
51928;BME280;37953;52.806;18.270;2023-04-28T04:08:06;101099.03;;;4.58;100.00
51928;BME280;37953;52.806;18.270;2023-04-28T04:10:32;101096.69;;;4.64;100.00
51928;BME280;37953;52.806;18.270;2023-04-28T04:12:58;101095.94;;;4.67;100.00
51928;BME280;37953;52.806;18.270;2023-04-28T04:15:24;101095.22;;;4.71;100.00
51928;BME280;37953;52.806;18.270;2023-04-28T04:17:50;101096.25;;;4.76;100.00
51928;BME280;37953;52.806;18.270;2023-04-28T04:20:16;101098.97;;;4.79;100.00
51928;BME280;37953;52.806;18.270;2023-04-28T04:22:42;101099.19;;;4.85;100.00
51928;BME280;37953;52.806;18.270;2023-04-28T04:25:08;101100.22;;;4.90;100.00
51928;BME280;37953;52.806;18.270;2023-04-28T04:27:34;101095.22;;;4.95;100.00
51928;BME280;37953;52.806;18.270;2023-04-28T04:30:00;101098.84;;;5.00;100.00
51928;BME280;37953;52.806;18.270;2023-04-28T04:32:26;101093.94;;;5.06;100.00
51928;BME280;37953;52.806;18.270;2023-04-28T04:34:52;101107.03;;;5.13;100.00
51928;BME280;37953;52.806;18.270;2023-04-28T04:37:18;101092.72;;;5.21;100.00
51928;BME280;37953;52.806;18.270;2023-04-28T04:39:44;101099.91;;;5.31;100.00
51928;BME280;37953;52.806;18.270;2023-04-28T04:42:11;101094.09;;;5.37;100.00
51928;BME280;37953;52.806;18.270;2023-04-28T04:44:37;101093.47;;;5.44;100.00
51928;BME280;37953;52.806;18.270;2023-04-28T04:47:03;101100.53;;;5.49;100.00
51928;BME280;37953;52.806;18.270;2023-04-28T04:49:29;101093.84;;;5.55;100.00
51928;BME280;37953;52.806;18.270;2023-04-28T04:51:57;101095.78;;;5.62;100.00
51928;BME280;37953;52.806;18.270;2023-04-28T04:54:23;101096.88;;;5.68;100.00
51928;BME280;37953;52.806;18.270;2023-04-28T04:56:50;101089.41;;;5.76;100.00
51928;BME280;37953;52.806;18.270;2023-04-28T04:59:16;101096.44;;;5.82;100.00
51928;BME280;37953;52.806;18.270;2023-04-28T05:01:42;101099.94;;;5.84;100.00
51928;BME280;37953;52.806;18.270;2023-04-28T05:04:08;101102.63;;;5.87;100.00
51928;BME280;37953;52.806;18.270;2023-04-28T05:06:34;101095.88;;;5.90;100.00
51928;BME280;37953;52.806;18.270;2023-04-28T05:09:00;101106.38;;;5.95;100.00
51928;BME280;37953;52.806;18.270;2023-04-28T05:11:26;101103.88;;;5.98;100.00
51928;BME280;37953;52.806;18.270;2023-04-28T05:13:52;101105.72;;;6.02;100.00
51928;BME280;37953;52.806;18.270;2023-04-28T05:16:18;101104.94;;;6.05;100.00
51928;BME280;37953;52.806;18.270;2023-04-28T05:18:44;101108.56;;;6.10;100.00
51928;BME280;37953;52.806;18.270;2023-04-28T05:21:10;101103.41;;;6.11;100.00
51928;BME280;37953;52.806;18.270;2023-04-28T05:23:39;101103.66;;;6.19;100.00
51928;BME280;37953;52.806;18.270;2023-04-28T05:26:42;101107.31;;;6.26;100.00
51928;BME280;37953;52.806;18.270;2023-04-28T05:29:09;101097.97;;;6.29;100.00
51928;BME280;37953;52.806;18.270;2023-04-28T05:31:34;101111.06;;;6.36;100.00
51928;BME280;37953;52.806;18.270;2023-04-28T05:34:01;101106.06;;;6.42;100.00
51928;BME280;37953;52.806;18.270;2023-04-28T05:36:27;101099.38;;;6.48;100.00
51928;BME280;37953;52.806;18.270;2023-04-28T05:38:53;101101.22;;;6.52;100.00
51928;BME280;37953;52.806;18.270;2023-04-28T05:41:19;101110.88;;;6.60;100.00
51928;BME280;37953;52.806;18.270;2023-04-28T05:43:45;101109.34;;;6.65;100.00
51928;BME280;37953;52.806;18.270;2023-04-28T05:46:12;101107.75;;;6.70;100.00
51928;BME280;37953;52.806;18.270;2023-04-28T05:48:38;101105.41;;;6.78;100.00
51928;BME280;37953;52.806;18.270;2023-04-28T05:51:04;101107.25;;;6.83;100.00
51928;BME280;37953;52.806;18.270;2023-04-28T05:53:30;101108.28;;;6.88;100.00
51928;BME280;37953;52.806;18.270;2023-04-28T05:55:56;101117.06;;;6.95;100.00
51928;BME280;37953;52.806;18.270;2023-04-28T05:58:22;101116.38;;;7.01;100.00
51928;BME280;37953;52.806;18.270;2023-04-28T06:00:49;101113.06;;;7.06;100.00
51928;BME280;37953;52.806;18.270;2023-04-28T06:03:15;101108.06;;;7.12;100.00
51928;BME280;37953;52.806;18.270;2023-04-28T06:05:47;101106.53;;;7.19;100.00
51928;BME280;37953;52.806;18.270;2023-04-28T06:08:13;101105.88;;;7.26;99.81
51928;BME280;37953;52.806;18.270;2023-04-28T06:10:39;101105.13;;;7.32;98.99
51928;BME280;37953;52.806;18.270;2023-04-28T06:13:06;101107.88;;;7.37;98.28
51928;BME280;37953;52.806;18.270;2023-04-28T06:15:32;101107.97;;;7.41;98.09
51928;BME280;37953;52.806;18.270;2023-04-28T06:17:59;101101.13;;;7.43;97.05
51928;BME280;37953;52.806;18.270;2023-04-28T06:20:25;101107.34;;;7.50;96.76
51928;BME280;37953;52.806;18.270;2023-04-28T06:22:51;101103.13;;;7.55;96.29
51928;BME280;37953;52.806;18.270;2023-04-28T06:25:17;101107.56;;;7.59;95.84
51928;BME280;37953;52.806;18.270;2023-04-28T06:27:43;101100.81;;;7.64;93.96
51928;BME280;37953;52.806;18.270;2023-04-28T06:30:09;101107.00;;;7.71;93.76
51928;BME280;37953;52.806;18.270;2023-04-28T06:32:35;101106.25;;;7.77;92.72
51928;BME280;37953;52.806;18.270;2023-04-28T06:35:02;101101.22;;;7.81;92.04
51928;BME280;37953;52.806;18.270;2023-04-28T06:37:28;101099.66;;;7.88;93.64
51928;BME280;37953;52.806;18.270;2023-04-28T06:39:54;101105.78;;;7.93;93.28
51928;BME280;37953;52.806;18.270;2023-04-28T06:42:20;101105.91;;;7.98;92.49
51928;BME280;37953;52.806;18.270;2023-04-28T06:44:46;101100.84;;;8.02;92.11
51928;BME280;37953;52.806;18.270;2023-04-28T06:47:13;101101.81;;;8.07;91.30
51928;BME280;37953;52.806;18.270;2023-04-28T06:49:39;101102.78;;;8.11;89.30
51928;BME280;37953;52.806;18.270;2023-04-28T06:52:08;101101.09;;;8.13;87.63
51928;BME280;37953;52.806;18.270;2023-04-28T06:54:34;101098.63;;;8.18;86.42
51928;BME280;37953;52.806;18.270;2023-04-28T06:57:02;101096.13;;;8.22;85.59
51928;BME280;37953;52.806;18.270;2023-04-28T06:59:28;101102.25;;;8.26;86.33
51928;BME280;37953;52.806;18.270;2023-04-28T07:01:54;101092.81;;;8.28;85.74
51928;BME280;37953;52.806;18.270;2023-04-28T07:04:26;101088.59;;;8.33;83.96
51928;BME280;37953;52.806;18.270;2023-04-28T07:06:52;101083.50;;;8.36;83.34
51928;BME280;37953;52.806;18.270;2023-04-28T07:09:18;101092.25;;;8.41;82.95
51928;BME280;37953;52.806;18.270;2023-04-28T07:11:44;101087.16;;;8.46;81.85
51928;BME280;37953;52.806;18.270;2023-04-28T07:14:10;101087.25;;;8.49;80.59
51928;BME280;37953;52.806;18.270;2023-04-28T07:16:37;101082.16;;;8.53;81.38
51928;BME280;37953;52.806;18.270;2023-04-28T07:19:03;101075.31;;;8.55;82.10
51928;BME280;37953;52.806;18.270;2023-04-28T07:21:29;101080.63;;;8.62;82.27
51928;BME280;37953;52.806;18.270;2023-04-28T07:23:55;101070.25;;;8.63;79.56
51928;BME280;37953;52.806;18.270;2023-04-28T07:26:22;101071.22;;;8.67;79.36
51928;BME280;37953;52.806;18.270;2023-04-28T07:28:48;101065.22;;;8.69;80.14
51928;BME280;37953;52.806;18.270;2023-04-28T07:31:14;101066.19;;;8.74;80.24
51928;BME280;37953;52.806;18.270;2023-04-28T07:33:40;101064.50;;;8.76;78.48
51928;BME280;37953;52.806;18.270;2023-04-28T07:36:06;101060.22;;;8.80;77.73
51928;BME280;37953;52.806;18.270;2023-04-28T07:38:33;101056.88;;;8.84;77.63
51928;BME280;37953;52.806;18.270;2023-04-28T07:41:01;101058.66;;;8.88;78.10
51928;BME280;37953;52.806;18.270;2023-04-28T07:43:27;101046.69;;;8.93;75.77
51928;BME280;37953;52.806;18.270;2023-04-28T07:45:53;101046.78;;;8.98;73.49
51928;BME280;37953;52.806;18.270;2023-04-28T07:48:19;101058.09;;;9.03;72.47
51928;BME280;37953;52.806;18.270;2023-04-28T07:50:45;101043.47;;;9.07;71.77
51928;BME280;37953;52.806;18.270;2023-04-28T07:53:11;101047.78;;;9.08;70.84
51928;BME280;37953;52.806;18.270;2023-04-28T07:55:37;101050.50;;;9.12;70.68
51928;BME280;37953;52.806;18.270;2023-04-28T07:58:07;101047.94;;;9.15;70.34
51928;BME280;37953;52.806;18.270;2023-04-28T08:00:33;101044.59;;;9.21;71.05
51928;BME280;37953;52.806;18.270;2023-04-28T08:02:59;101042.91;;;9.25;68.64
51928;BME280;37953;52.806;18.270;2023-04-28T08:05:25;101043.88;;;9.30;69.15
51928;BME280;37953;52.806;18.270;2023-04-28T08:07:51;101040.50;;;9.34;69.91
51928;BME280;37953;52.806;18.270;2023-04-28T08:10:23;101035.41;;;9.40;69.24
51928;BME280;37953;52.806;18.270;2023-04-28T08:12:51;101032.88;;;9.45;68.16
51928;BME280;37953;52.806;18.270;2023-04-28T08:15:17;101031.22;;;9.48;66.90
51928;BME280;37953;52.806;18.270;2023-04-28T08:17:44;101034.72;;;9.50;65.78
51928;BME280;37953;52.806;18.270;2023-04-28T08:20:10;101027.81;;;9.52;63.65
51928;BME280;37953;52.806;18.270;2023-04-28T08:22:36;101020.97;;;9.56;62.51
51928;BME280;37953;52.806;18.270;2023-04-28T08:25:02;101026.28;;;9.64;62.56
51928;BME280;37953;52.806;18.270;2023-04-28T08:27:29;101021.16;;;9.68;63.36
51928;BME280;37953;52.806;18.270;2023-04-28T08:29:59;101015.19;;;9.75;62.48
51928;BME280;37953;52.806;18.270;2023-04-28T08:32:25;101009.22;;;9.81;62.46
51928;BME280;37953;52.806;18.270;2023-04-28T08:34:51;101010.16;;;9.86;61.87
51928;BME280;37953;52.806;18.270;2023-04-28T08:37:17;101011.16;;;9.93;60.67
51928;BME280;37953;52.806;18.270;2023-04-28T08:39:43;101007.78;;;10.00;61.44
51928;BME280;37953;52.806;18.270;2023-04-28T08:42:09;101001.81;;;10.07;61.36
51928;BME280;37953;52.806;18.270;2023-04-28T08:44:39;100999.31;;;10.15;61.07
51928;BME280;37953;52.806;18.270;2023-04-28T08:47:12;101006.31;;;10.22;61.31
51928;BME280;37953;52.806;18.270;2023-04-28T08:49:45;101004.66;;;10.26;59.66
51928;BME280;37953;52.806;18.270;2023-04-28T08:52:16;101002.09;;;10.29;57.97
51928;BME280;37953;52.806;18.270;2023-04-28T08:54:43;100988.38;;;10.36;57.73
51928;BME280;37953;52.806;18.270;2023-04-28T08:57:09;100991.84;;;10.38;57.66
51928;BME280;37953;52.806;18.270;2023-04-28T08:59:39;100986.72;;;10.44;57.88
51928;BME280;37953;52.806;18.270;2023-04-28T09:02:09;100984.19;;;10.49;56.44
51928;BME280;37953;52.806;18.270;2023-04-28T09:04:35;100986.81;;;10.53;55.06
51928;BME280;37953;52.806;18.270;2023-04-28T09:07:01;100980.75;;;10.53;53.68
51928;BME280;37953;52.806;18.270;2023-04-28T09:09:28;100987.75;;;10.57;53.99
51928;BME280;37953;52.806;18.270;2023-04-28T09:11:59;100982.56;;;10.60;57.09
51928;BME280;37953;52.806;18.270;2023-04-28T09:14:27;100977.41;;;10.63;60.71
51928;BME280;37953;52.806;18.270;2023-04-28T09:16:54;100973.09;;;10.64;59.55
51928;BME280;37953;52.806;18.270;2023-04-28T09:19:20;100965.25;;;10.62;57.62
51928;BME280;37953;52.806;18.270;2023-04-28T09:21:55;100979.16;;;10.64;58.51
51928;BME280;37953;52.806;18.270;2023-04-28T09:24:40;100980.91;;;10.67;57.75
51928;BME280;37953;52.806;18.270;2023-04-28T09:27:12;100968.75;;;10.63;56.40
51928;BME280;37953;52.806;18.270;2023-04-28T09:29:52;100968.72;;;10.61;55.49
51928;BME280;37953;52.806;18.270;2023-04-28T09:32:20;100962.69;;;10.61;55.90
51928;BME280;37953;52.806;18.270;2023-04-28T09:34:48;100954.91;;;10.64;56.48
51928;BME280;37953;52.806;18.270;2023-04-28T09:37:19;100961.88;;;10.68;56.96
51928;BME280;37953;52.806;18.270;2023-04-28T09:39:47;100954.97;;;10.73;57.70
51928;BME280;37953;52.806;18.270;2023-04-28T09:42:40;100959.38;;;10.78;56.59
51928;BME280;37953;52.806;18.270;2023-04-28T09:45:11;100960.31;;;10.87;58.74
51928;BME280;37953;52.806;18.270;2023-04-28T09:47:39;100955.22;;;10.94;60.62
51928;BME280;37953;52.806;18.270;2023-04-28T09:50:07;100954.41;;;11.05;61.35
51928;BME280;37953;52.806;18.270;2023-04-28T09:52:34;100957.09;;;11.14;61.14
51928;BME280;37953;52.806;18.270;2023-04-28T09:55:07;100958.03;;;11.20;60.10
51928;BME280;37953;52.806;18.270;2023-04-28T09:57:34;100951.97;;;11.25;58.91
51928;BME280;37953;52.806;18.270;2023-04-28T10:00:02;100945.03;;;11.24;56.00
51928;BME280;37953;52.806;18.270;2023-04-28T10:02:36;100938.97;;;11.23;55.94
51928;BME280;37953;52.806;18.270;2023-04-28T10:05:04;100937.22;;;11.24;55.25
51928;BME280;37953;52.806;18.270;2023-04-28T10:07:33;100930.31;;;11.27;56.29
51928;BME280;37953;52.806;18.270;2023-04-28T10:10:00;100932.97;;;11.33;59.32
51928;BME280;37953;52.806;18.270;2023-04-28T10:12:31;100932.13;;;11.37;59.96
51928;BME280;37953;52.806;18.270;2023-04-28T10:14:59;100926.06;;;11.38;58.16
51928;BME280;37953;52.806;18.270;2023-04-28T10:17:24;100926.91;;;11.36;57.83
51928;BME280;37953;52.806;18.270;2023-04-28T10:19:53;100919.94;;;11.32;55.85
51928;BME280;37953;52.806;18.270;2023-04-28T10:22:59;100911.31;;;11.37;60.92
51928;BME280;37953;52.806;18.270;2023-04-28T10:25:42;100914.84;;;11.44;64.87
51928;BME280;37953;52.806;18.270;2023-04-28T10:28:08;100897.53;;;11.51;63.75
51928;BME280;37953;52.806;18.270;2023-04-28T10:30:35;100908.84;;;11.59;62.74
51928;BME280;37953;52.806;18.270;2023-04-28T10:35:41;100902.88;;;11.77;64.59
51928;BME280;37953;52.806;18.270;2023-04-28T10:38:12;100895.09;;;11.85;64.98
51928;BME280;37953;52.806;18.270;2023-04-28T10:40:43;100889.97;;;11.94;64.06
51928;BME280;37953;52.806;18.270;2023-04-28T10:45:58;100894.38;;;12.09;64.11
51928;BME280;37953;52.806;18.270;2023-04-28T10:56:23;100888.34;;;12.36;62.30
51928;BME280;37953;52.806;18.270;2023-04-28T10:59:46;100887.50;;;12.43;63.84
51928;BME280;37953;52.806;18.270;2023-04-28T11:02:36;100878.81;;;12.50;63.22
51928;BME280;37953;52.806;18.270;2023-04-28T11:05:09;100881.41;;;12.55;62.20
51928;BME280;37953;52.806;18.270;2023-04-28T11:07:36;100871.00;;;12.56;60.83
51928;BME280;37953;52.806;18.270;2023-04-28T11:10:02;100867.53;;;12.59;60.24
51928;BME280;37953;52.806;18.270;2023-04-28T11:12:29;100864.09;;;12.61;60.88
51928;BME280;37953;52.806;18.270;2023-04-28T11:14:55;100854.50;;;12.67;61.47
51928;BME280;37953;52.806;18.270;2023-04-28T11:17:41;100856.25;;;12.71;61.22
51928;BME280;37953;52.806;18.270;2023-04-28T11:20:14;100853.63;;;12.74;61.78
51928;BME280;37953;52.806;18.270;2023-04-28T11:22:40;100844.94;;;12.78;60.58
51928;BME280;37953;52.806;18.270;2023-04-28T11:25:07;100850.16;;;12.82;62.46
51928;BME280;37953;52.806;18.270;2023-04-28T11:27:33;100844.09;;;12.85;64.51
51928;BME280;37953;52.806;18.270;2023-04-28T11:29:59;100852.78;;;12.86;61.41
51928;BME280;37953;52.806;18.270;2023-04-28T11:32:51;100864.06;;;12.91;60.74
51928;BME280;37953;52.806;18.270;2023-04-28T11:35:17;100862.34;;;12.96;62.78
51928;BME280;37953;52.806;18.270;2023-04-28T11:38:03;100855.34;;;12.99;60.46
51928;BME280;37953;52.806;18.270;2023-04-28T11:40:30;100863.19;;;13.02;61.66
51928;BME280;37953;52.806;18.270;2023-04-28T11:42:57;100855.38;;;13.09;62.81
51928;BME280;37953;52.806;18.270;2023-04-28T11:45:24;100850.13;;;13.12;62.62
51928;BME280;37953;52.806;18.270;2023-04-28T11:47:50;100852.75;;;13.19;62.15
51928;BME280;37953;52.806;18.270;2023-04-28T11:50:16;100850.09;;;13.22;59.88
51928;BME280;37953;52.806;18.270;2023-04-28T11:52:49;100846.63;;;13.28;60.63
51928;BME280;37953;52.806;18.270;2023-04-28T11:55:16;100851.00;;;13.31;61.98
51928;BME280;37953;52.806;18.270;2023-04-28T11:57:44;100848.38;;;13.35;62.85
51928;BME280;37953;52.806;18.270;2023-04-28T12:00:15;100837.94;;;13.38;60.27
51928;BME280;37953;52.806;18.270;2023-04-28T12:02:46;100837.06;;;13.44;61.62
51928;BME280;37953;52.806;18.270;2023-04-28T12:05:12;100834.41;;;13.50;61.62
51928;BME280;37953;52.806;18.270;2023-04-28T12:07:43;100838.75;;;13.56;61.17
51928;BME280;37953;52.806;18.270;2023-04-28T12:10:12;100833.53;;;13.59;59.99
51928;BME280;37953;52.806;18.270;2023-04-28T12:12:40;100832.63;;;13.63;59.26
51928;BME280;37953;52.806;18.270;2023-04-28T12:15:07;100837.84;;;13.68;59.82
51928;BME280;37953;52.806;18.270;2023-04-28T12:17:47;100829.13;;;13.69;59.47
51928;BME280;37953;52.806;18.270;2023-04-28T12:20:33;100829.97;;;13.69;58.94
51928;BME280;37953;52.806;18.270;2023-04-28T12:23:00;100830.84;;;13.73;59.71
51928;BME280;37953;52.806;18.270;2023-04-28T12:25:27;100821.28;;;13.75;59.66
51928;BME280;37953;52.806;18.270;2023-04-28T12:28:06;100822.13;;;13.77;57.95
51928;BME280;37953;52.806;18.270;2023-04-28T12:30:34;100812.53;;;13.80;57.53
51928;BME280;37953;52.806;18.270;2023-04-28T12:33:00;100813.41;;;13.81;56.35
51928;BME280;37953;52.806;18.270;2023-04-28T12:35:27;100809.91;;;13.83;56.54
51928;BME280;37953;52.806;18.270;2023-04-28T12:37:59;100811.63;;;13.89;59.78
51928;BME280;37953;52.806;18.270;2023-04-28T12:40:25;100803.75;;;13.94;59.52
51928;BME280;37953;52.806;18.270;2023-04-28T12:42:52;100796.78;;;13.96;57.28
51928;BME280;37953;52.806;18.270;2023-04-28T12:45:18;100792.38;;;14.02;59.81
51928;BME280;37953;52.806;18.270;2023-04-28T12:47:44;100792.34;;;14.09;60.94
51928;BME280;37953;52.806;18.270;2023-04-28T12:50:10;100786.19;;;14.16;60.61
51928;BME280;37953;52.806;18.270;2023-04-28T12:52:36;100782.69;;;14.21;58.46
51928;BME280;37953;52.806;18.270;2023-04-28T12:55:03;100780.88;;;14.30;59.68
51928;BME280;37953;52.806;18.270;2023-04-28T12:57:29;100777.38;;;14.34;59.04
51928;BME280;37953;52.806;18.270;2023-04-28T12:59:56;100767.72;;;14.39;60.09
51928;BME280;37953;52.806;18.270;2023-04-28T13:02:22;100761.59;;;14.44;59.44
51928;BME280;37953;52.806;18.270;2023-04-28T13:04:48;100775.47;;;14.50;58.36
51928;BME280;37953;52.806;18.270;2023-04-28T13:07:16;100767.63;;;14.54;57.56
51928;BME280;37953;52.806;18.270;2023-04-28T13:09:43;100763.25;;;14.59;59.36
51928;BME280;37953;52.806;18.270;2023-04-28T13:12:09;100755.34;;;14.62;56.98
51928;BME280;37953;52.806;18.270;2023-04-28T13:14:36;100766.66;;;14.66;56.64